• Join FlightAware (Why Join?)
  • Login
  • US Flag GB Flag 
20:20 EDT


 

Airport Tracker/Info


-or-


 

Live Flight TrackerFlight Track Log ✈ EJM826 ✈ 23-Jul-2013 ✈ KPLN - KHOU

Flight Track Log - Related Links

Times and Time Zones

All times are in EDT time to prevent confusion due to time zone crossing. See the EJM826 flight status page for this flight to view local times or setup timezone preferences in your user account.

Time Position Orientation Groundspeed Altitude Reporting Facility
EDT Latitude Longitude Course Direction KTS MPH feet Rate Location/Type
13:51 45.3881 -85.0111 180° South 247 284 3,600  Level Minneapolis Center
13:52 45.3269 -85.0628 211° Southwest 255 293 6,600 2,340 Climbing Minneapolis Center
13:53 45.0663 -85.2169 209° Southwest  Level FlightAware Approximate
13:53 45.2744 -85.1092 212° Southwest 263 303 8,500  Level Minneapolis Center
13:54 44.9630 -85.2989 209° Southwest  Level FlightAware Approximate
13:54 45.1739 -85.1972 212° Southwest 289 333 12,100  Level Minneapolis Center
13:55 44.8596 -85.3805 209° Southwest  Level FlightAware Approximate
13:55 45.0981 -85.2608 211° Southwest 302 348 14,400  Level Minneapolis Center
13:56 44.7561 -85.4619 209° Southwest  Level FlightAware Approximate
13:57 44.6575 -85.5500 180° South  Level FlightAware Approximate
13:57 45.0197 -85.3267 211° Southwest 314 361 16,400  Level Minneapolis Center
13:58 44.9394 -85.3944 211° Southwest 329 379 18,600 1,980 Climbing Minneapolis Center
13:59 44.8561 -85.4644 211° Southwest 344 396 20,600 1,740 Climbing Minneapolis Center
14:00 44.7722 -85.5356 211° Southwest 352 405 22,300 1,740 Climbing Minneapolis Center
14:01 44.6692 -85.6219 211° Southwest 358 412 24,300 1,680 Climbing Minneapolis Center
14:02 44.5800 -85.6969 211° Southwest 370 426 25,900 1,440 Climbing Minneapolis Center
14:03 44.4878 -85.7725 210° Southwest 379 436 27,300 1,260 Climbing Minneapolis Center
14:04 44.3950 -85.8500 211° Southwest 386 444 28,600 1,200 Climbing Minneapolis Center
14:05 44.2992 -85.9292 211° Southwest 397 457 29,900 1,200 Climbing Minneapolis Center
14:06 44.2025 -86.0103 211° Southwest 403 464 31,200 1,200 Climbing Minneapolis Center
14:07 44.0908 -86.1019 211° Southwest 415 478 32,500 1,440 Climbing Minneapolis Center
14:08 43.9908 -86.1842 211° Southwest 419 482 34,200 1,380 Climbing Minneapolis Center
14:09 43.8917 -86.2653 211° Southwest 411 473 35,400 1,140 Climbing Minneapolis Center
14:10 43.8156 -86.3278 211° Southwest 412 474 36,300 1,080 Climbing Chicago Center
14:11 43.7189 -86.4056 210° Southwest 406 467 37,400 960 Climbing Chicago Center
14:12 43.6219 -86.4839 210° Southwest 405 466 38,300 780 Climbing Chicago Center
14:13 43.5244 -86.5644 211° Southwest 410 472 39,100 720 Climbing Chicago Center
14:14 43.4061 -86.6603 210° Southwest 412 474 39,900 420 Climbing Chicago Center
14:15 43.3050 -86.7406 210° Southwest 421 484 40,000  Climbing Chicago Center
14:16 43.2014 -86.8231 210° Southwest 433 498 40,000  Level Chicago Center
14:17 43.0947 -86.9094 211° Southwest 446 513 40,000  Level Chicago Center
14:18 42.9861 -86.9944 210° Southwest 452 520 40,000  Level Chicago Center
14:19 42.8539 -87.0975 210° Southwest 457 526 40,000  Level Chicago Center
14:20 42.7444 -87.1806 209° Southwest 454 522 40,000  Level Chicago Center
14:21 42.6378 -87.2650 210° Southwest 447 514 40,000  Level Chicago Center
14:22 42.5294 -87.3483 210° Southwest 434 499 40,000  Level Chicago Center
14:23 42.4283 -87.4283 210° Southwest 426 490 40,000  Level Chicago Center
14:24 42.3269 -87.5056 209° Southwest 422 486 40,000  Level Chicago Center
14:25 42.2047 -87.5994 210° Southwest 427 491 40,000  Level Chicago Center
14:26 42.1025 -87.6775 210° Southwest 426 490 40,000  Level Chicago Center
14:27 41.9986 -87.7564 209° Southwest 433 498 40,000 120 Level Chicago Center
14:28 41.8956 -87.8331 209° Southwest 429 494 40,300 600 Climbing Chicago Center
14:29 41.7925 -87.9114 210° Southwest 427 491 41,300 1,020 Climbing Chicago Center
14:30 41.6736 -88.0011 209° Southwest 411 473 42,500 780 Climbing Chicago Center
14:31 41.5778 -88.0731 209° Southwest 402 463 43,000 240 Climbing Chicago Center
14:32 41.4711 -88.1525 209° Southwest 418 481 43,000  Level Chicago Center
14:34 41.3606 -88.2361 210° Southwest 422 486 43,000  Level Chicago Center
14:35 41.2567 -88.3122 209° Southwest 430 495 43,000  Level Chicago Center
14:36 41.1528 -88.3881 209° Southwest 430 495 43,000  Level Chicago Center
14:37 41.0483 -88.4650 209° Southwest 432 497 43,000  Level Chicago Center
14:38 40.9444 -88.5414 209° Southwest 431 496 43,000  Level Chicago Center
14:39 40.8183 -88.6333 209° Southwest 432 497 43,000  Level Chicago Center
14:40 40.7133 -88.7083 208° Southwest 433 498 43,000  Level Chicago Center
14:41 40.6081 -88.7836 209° Southwest 433 498 43,000  Level Chicago Center
14:42 40.5028 -88.8594 209° Southwest 430 495 43,000  Level Chicago Center
14:43 40.4008 -88.9333 209° Southwest 420 483 43,000  Level Chicago Center
14:44 40.2989 -89.0061 209° Southwest 416 479 43,000  Level Chicago Center
14:45 40.1764 -89.0936 209° Southwest 416 479 43,000  Level Chicago Center
14:46 40.0750 -89.1633 208° Southwest 411 473 43,000  Level Chicago Center
14:46 40.0331 -89.1947 210° Southwest 415 478 43,000  Level Kansas City Center
14:48 39.9103 -89.2814 208° Southwest 416 479 43,000  Level Kansas City Center
14:49 39.8061 -89.3542 208° Southwest 422 486 43,000  Level Kansas City Center
14:50 39.6972 -89.4306 208° Southwest 423 487 43,000  Level Kansas City Center
14:51 39.5931 -89.5047 209° Southwest 426 490 43,000  Level Kansas City Center
14:52 39.4875 -89.5772 208° Southwest 428 493 43,000  Level Kansas City Center
14:53 39.3825 -89.6511 209° Southwest 429 494 43,000  Level Kansas City Center
14:54 39.2767 -89.7236 208° Southwest 432 497 43,000  Level Kansas City Center
14:55 39.1503 -89.8156 209° Southwest 427 491 43,000  Level Kansas City Center
14:56 39.0469 -89.8872 208° Southwest 424 488 43,000  Level Kansas City Center
14:57 38.9347 -89.9633 208° Southwest 425 489 43,000  Level Kansas City Center
14:58 38.8278 -90.0328 207° Southwest 422 486 43,000  Level Kansas City Center
14:59 38.7225 -90.1042 208° Southwest 424 488 43,000  Level Kansas City Center
15:00 38.6250 -90.1681 207° Southwest 430 495 43,000  Level Kansas City Center
15:01 38.5158 -90.2414 208° Southwest 434 499 43,000  Level Kansas City Center
15:02 38.4081 -90.3136 208° Southwest 434 499 43,000  Level Kansas City Center
15:03 38.3028 -90.3856 208° Southwest 430 495 43,000  Level Kansas City Center
15:04 38.1758 -90.4711 208° Southwest 430 495 43,000  Level Kansas City Center
15:05 38.0689 -90.5419 208° Southwest 432 497 43,000  Level Kansas City Center
15:06 37.9636 -90.6114 207° Southwest 429 494 43,000  Level Kansas City Center
15:07 37.8561 -90.6833 208° Southwest 434 499 43,000  Level Kansas City Center
15:08 37.7458 -90.7436 203° Southwest 431 496 43,000  Level Kansas City Center
15:09 37.6278 -90.7903 197° South 441 507 43,000  Level Kansas City Center
15:10 37.5003 -90.8436 198° South 441 507 43,000  Level Kansas City Center
15:11 37.3822 -90.8911 198° South 442 509 43,000  Level Kansas City Center
15:12 37.2447 -90.9458 198° South 434 499 43,000  Level Kansas City Center
15:13 37.1256 -90.9944 198° South 438 504 43,000  Level Kansas City Center
15:14 37.0147 -91.0389 198° South 445 512 43,000  Level Kansas City Center
15:15 36.8972 -91.0858 198° South 446 513 43,000  Level Kansas City Center
15:16 36.7692 -91.1367 198° South 443 510 43,000  Level Kansas City Center
15:18 36.6517 -91.1831 198° South 442 509 43,000  Level Kansas City Center
15:19 36.5192 -91.2347 197° South 448 516 43,000  Level Kansas City Center
15:19 36.4178 -91.2803 200° South 443 510 43,000  Level Memphis Center
15:20 36.2986 -91.3253 197° South 443 510 43,000  Level Memphis Center
15:21 36.1794 -91.3700 197° South 443 510 43,000  Level Memphis Center
15:22 36.0625 -91.4175 198° South 443 510 43,000  Level Memphis Center
15:23 35.9347 -91.4644 197° South 443 510 43,000  Level Memphis Center
15:24 35.8175 -91.5117 198° South 443 510 43,000  Level Memphis Center
15:25 35.6942 -91.5583 197° South 448 516 43,000  Level Memphis Center
15:26 35.5747 -91.6000 196° South 448 516 43,000  Level Memphis Center
15:27 35.4556 -91.6442 197° South 455 524 43,000  Level Memphis Center
15:28 35.3300 -91.6831 194° South 455 524 43,000  Level Memphis Center
15:29 35.2064 -91.7192 193° South 455 524 43,000  Level Memphis Center
15:30 35.0850 -91.7553 194° South 450 518 43,000  Level Memphis Center
15:31 34.9617 -91.7914 193° South 455 524 43,000  Level Memphis Center
15:32 34.8422 -91.8297 195° South 455 524 43,000  Level Memphis Center
15:33 34.7186 -91.8681 194° South 455 524 43,000  Level Memphis Center
15:34 34.5972 -91.9064 195° South 455 524 43,000  Level Memphis Center
15:35 34.4778 -91.9419 194° South 455 524 43,000  Level Memphis Center
15:36 34.3542 -91.9772 193° South 455 524 43,000  Level Memphis Center
15:37 34.2328 -92.0203 196° South 455 524 43,000  Level Memphis Center
15:38 34.1153 -92.0606 196° South 450 518 43,000  Level Memphis Center
15:39 34.0019 -92.0986 196° South 445 512 43,000  Level Memphis Center
15:41 33.8222 -92.1783 200° South 422 486 43,000  Level Fort Worth Center
15:42 33.7081 -92.2425 205° Southwest 439 505 43,000  Level Fort Worth Center
15:43 33.5958 -92.3067 205° Southwest 445 512 43,000  Level Fort Worth Center
15:44 33.4733 -92.3758 205° Southwest 445 512 43,000  Level Fort Worth Center
15:45 33.3564 -92.4275 200° South 450 518 43,000  Level Fort Worth Center
15:46 33.2281 -92.4494 188° South 457 526 43,000  Level Fort Worth Center
15:47 33.1036 -92.4689 187° South 457 526 43,000  Level Fort Worth Center
15:48 32.9792 -92.4931 189° South 463 533 43,000  Level Fort Worth Center
15:50 32.7225 -92.5408 189° South 457 526 43,000  Level Houston Center
15:51 32.5967 -92.5650 189° South 459 528 43,000  Level Houston Center
15:52 32.4622 -92.5908 189° South 454 522 43,000  Level Houston Center
15:53 32.3372 -92.6136 189° South 455 524 43,000  Level Houston Center
15:54 32.2114 -92.6350 188° South 455 524 43,000  Level Houston Center
15:55 32.0869 -92.6586 189° South 456 525 43,000  Level Houston Center
15:56 31.9681 -92.7044 198° South 454 522 43,000  Level Houston Center
15:57 31.8767 -92.8031 223° Southwest 453 521 43,000  Level Houston Center
15:58 31.7756 -92.9317 227° Southwest 451 519 43,000  Level Houston Center
15:59 31.6900 -93.0397 227° Southwest 454 522 43,000  Level Houston Center
16:01 31.6056 -93.1467 227° Southwest 450 518 43,000  Level Houston Center
16:02 31.5192 -93.2542 227° Southwest 455 524 43,000  Level Houston Center
16:03 31.4244 -93.3728 227° Southwest 461 531 43,000  Level Houston Center
16:04 31.3367 -93.4847 227° Southwest 466 536 43,000 -540 Level Houston Center
16:05 31.2378 -93.6053 226° Southwest 462 532 41,900 -1,680 Descending Houston Center
16:06 31.1544 -93.7122 228° Southwest 451 519 39,600 -1,920 Descending Houston Center
16:07 31.0658 -93.8203 226° Southwest 466 536 38,000 -1,500 Descending Houston Center
16:08 30.9753 -93.9325 227° Southwest 477 549 36,600 -2,520 Descending Houston Center
16:09 30.8633 -94.0686 226° Southwest 488 562 32,800 -3,420 Descending Houston Center
16:10 30.7683 -94.1839 226° Southwest 495 570 29,500 -3,300 Descending Houston Center
16:11 30.6728 -94.3011 227° Southwest 502 578 26,100 -3,660 Descending Houston Center
16:11 30.6056 -94.3814 226° Southwest 506 582 23,700 -3,840 Descending Houston Center
16:13 30.4933 -94.5222 227° Southwest 491 565 19,200 -3,540 Descending Houston Center
16:14 30.3997 -94.6642 233° Southwest 430 495 14,800 -2,880 Descending Houston Center
16:15 30.3414 -94.7550 233° Southwest 399 459 13,100 -1,020 Descending Houston Center
16:16 30.2719 -94.8642 234° Southwest 380 437 12,700 -900 Descending Houston Center
16:17 30.2186 -94.9447 233° Southwest 372 428 11,300 -1,500 Descending Houston Center
16:18 30.1506 -95.0475 233° Southwest 377 434 10,000 -600 Descending Houston Center
16:19 30.0628 -95.0972 206° Southwest 329 379 10,100 -600 Climbing Houston Center
16:20 29.9906 -95.1325 203° Southwest 266 306 8,900 -1,680 Descending Houston Center
16:21 29.9200 -95.1653 202° Southwest 271 312 6,800 -1,440 Descending Houston Center
16:22 29.8614 -95.1894 200° South 224 258 6,100 -420 Descending Houston Center
16:23 29.7967 -95.2167 200° South 224 258 6,000  Descending Houston Center
16:24 29.7358 -95.2408 199° South 221 254 6,100  Climbing Houston Center
16:25 29.7028 -95.2906 233° Southwest 218 251 6,000 -960 Descending Houston Center
16:26 29.6792 -95.3536 247° West 214 246 4,300 -1,620 Descending Houston Center
16:27 29.7108 -95.4028 307° West 247 284 2,600 -1,140 Descending Houston Center
16:28 29.7083 -95.3500 93° East 182 209 1,900 -840 Descending Houston Center
16:29 29.6733 -95.3133 138° Southeast 160 184 900 -1,020 Descending Houston Center